createdAt,value
2022-12-01T00:00:40.076Z,26.13
2022-12-01T00:05:43.985Z,24.65
2022-12-01T00:10:46.760Z,25.60
2022-12-01T00:15:48.618Z,27.35
2022-12-01T00:20:55.995Z,25.88
2022-12-01T00:26:05.311Z,25.83
2022-12-01T00:31:08.684Z,29.40
2022-12-01T00:36:10.765Z,29.27
2022-12-01T00:41:12.651Z,28.98
2022-12-01T00:46:14.648Z,27.85
2022-12-01T00:51:16.662Z,27.58
2022-12-01T00:56:18.803Z,29.77
2022-12-01T01:01:20.808Z,28.52
2022-12-01T01:06:22.769Z,29.50
2022-12-01T01:11:25.203Z,28.23
2022-12-01T01:16:27.339Z,27.42
2022-12-01T01:21:29.292Z,26.27
2022-12-01T01:26:32.670Z,27.42
2022-12-01T01:31:35.179Z,25.75
2022-12-01T01:36:37.075Z,25.50
2022-12-01T01:41:39.032Z,25.58
2022-12-01T01:46:40.947Z,24.85
2022-12-01T01:51:51.361Z,23.48
2022-12-01T01:56:55.304Z,24.00
2022-12-01T02:02:03.673Z,23.13
2022-12-01T02:07:07.076Z,27.52
2022-12-01T02:12:17.203Z,23.65
2022-12-01T02:17:43.041Z,23.65
2022-12-01T02:23:03.635Z,23.08
2022-12-01T02:28:24.779Z,23.42
2022-12-01T02:33:53.149Z,26.20
2022-12-01T02:39:09.370Z,25.83
2022-12-01T02:44:19.807Z,24.88
2022-12-01T02:49:26.787Z,25.33
2022-12-01T02:54:31.225Z,27.48
2022-12-01T02:59:33.346Z,28.95
2022-12-01T03:04:56.801Z,25.80
2022-12-01T03:10:37.080Z,26.35
2022-12-01T03:16:25.604Z,24.90
2022-12-01T03:21:35.256Z,40.13
2022-12-01T03:26:38.972Z,40.42
2022-12-01T03:36:50.227Z,27.23
2022-12-01T03:41:59.092Z,41.58
2022-12-01T03:47:04.873Z,70.72
2022-12-01T03:52:38.872Z,40.70
2022-12-01T03:58:05.639Z,31.63
2022-12-01T04:03:07.786Z,32.50
2022-12-01T04:08:09.753Z,36.70
2022-12-01T04:13:22.977Z,33.75
2022-12-01T04:18:25.038Z,32.17
2022-12-01T04:23:45.652Z,30.33
2022-12-01T04:28:47.957Z,31.45
2022-12-01T04:33:50.121Z,35.05
2022-12-01T04:38:52.502Z,33.67
2022-12-01T04:43:55.176Z,30.17
2022-12-01T04:48:57.078Z,28.05
2022-12-01T04:53:58.937Z,25.63
2022-12-01T04:59:00.956Z,24.10
2022-12-01T05:04:03.179Z,25.10
2022-12-01T05:09:05.734Z,27.80
2022-12-01T05:14:07.733Z,24.50
2022-12-01T05:19:28.370Z,30.13
2022-12-01T05:24:30.199Z,26.83
2022-12-01T05:29:33.036Z,29.10
2022-12-01T05:34:35.029Z,25.53
2022-12-01T05:39:36.962Z,27.42
2022-12-01T05:44:38.844Z,29.10
2022-12-01T05:49:40.699Z,33.50
2022-12-01T05:54:43.178Z,35.78
2022-12-01T05:59:45.123Z,34.33
2022-12-01T06:04:47.187Z,33.80
2022-12-01T06:09:49.819Z,31.67
2022-12-01T06:14:51.933Z,29.87
2022-12-01T06:19:53.841Z,28.23
2022-12-01T06:24:55.700Z,31.23
2022-12-01T06:29:57.629Z,25.27
2022-12-01T06:34:59.580Z,26.70
2022-12-01T06:40:01.492Z,25.23
2022-12-01T06:45:04.672Z,27.80
2022-12-01T06:50:08.719Z,28.00
2022-12-01T06:55:10.652Z,26.83
2022-12-01T07:00:13.536Z,29.23
2022-12-01T07:05:16.241Z,28.67
2022-12-01T07:10:18.297Z,32.15
2022-12-01T07:15:20.296Z,30.65
2022-12-01T07:20:22.238Z,31.08
2022-12-01T07:25:24.249Z,36.97
2022-12-01T07:30:28.579Z,36.25
2022-12-01T07:35:30.871Z,36.47
2022-12-01T07:40:32.730Z,34.80
2022-12-01T07:45:34.672Z,35.60
2022-12-01T07:50:36.717Z,32.80
2022-12-01T07:55:38.561Z,34.47
2022-12-01T08:00:40.704Z,37.25
2022-12-01T08:05:42.812Z,36.40
2022-12-01T08:10:44.672Z,33.30
2022-12-01T08:15:46.772Z,31.48
2022-12-01T08:20:49.892Z,33.15
2022-12-01T08:25:52.617Z,34.33
2022-12-01T08:30:54.571Z,32.85
2022-12-01T08:35:56.440Z,32.53
2022-12-01T08:41:03.583Z,33.33
2022-12-01T08:46:13.560Z,32.08
2022-12-01T08:51:21.640Z,35.47
2022-12-01T08:56:27.445Z,33.42
2022-12-01T09:01:29.599Z,36.65
2022-12-01T09:06:34.589Z,30.63
2022-12-01T09:11:36.604Z,31.00
2022-12-01T09:16:39.773Z,33.78
2022-12-01T09:21:43.401Z,34.47
2022-12-01T09:26:45.292Z,35.65
2022-12-01T09:31:47.243Z,38.63
2022-12-01T09:36:49.557Z,43.03
2022-12-01T09:41:59.522Z,44.17
2022-12-01T09:47:19.213Z,43.92
2022-12-01T09:52:24.033Z,46.33
2022-12-01T09:57:35.331Z,47.90
2022-12-01T10:02:51.043Z,43.28
2022-12-01T10:08:05.790Z,46.15
2022-12-01T10:13:28.101Z,41.55
2022-12-01T10:18:53.500Z,38.50
2022-12-01T10:24:01.381Z,38.15
2022-12-01T10:29:13.980Z,38.40
2022-12-01T10:34:31.046Z,39.92
2022-12-01T10:39:37.940Z,38.78
2022-12-01T10:44:40.417Z,37.55
2022-12-01T10:49:42.638Z,41.00
2022-12-01T10:54:44.610Z,38.17
2022-12-01T10:59:52.275Z,38.13
2022-12-01T11:05:04.249Z,38.97
2022-12-01T11:10:18.557Z,42.85
2022-12-01T11:15:24.335Z,50.15
2022-12-01T11:20:38.040Z,60.63
2022-12-01T11:25:39.961Z,61.65
2022-12-01T11:30:41.866Z,66.25
2022-12-01T11:35:49.171Z,58.72
2022-12-01T11:40:59.940Z,54.92
2022-12-01T11:46:06.414Z,53.40
2022-12-01T11:51:18.233Z,43.88
2022-12-01T11:56:23.803Z,40.17
2022-12-01T12:01:51.474Z,43.25
2022-12-01T12:06:58.888Z,43.38
2022-12-01T12:12:10.009Z,37.78
2022-12-01T12:17:44.012Z,32.45
2022-12-01T12:23:04.159Z,31.70
2022-12-01T12:28:22.793Z,33.17
2022-12-01T12:33:36.368Z,28.80
2022-12-01T12:38:58.237Z,29.75
2022-12-01T12:44:46.797Z,21.60
2022-12-01T12:50:29.860Z,25.50
2022-12-01T12:55:45.891Z,22.88
2022-12-01T13:00:57.540Z,21.23
2022-12-01T13:06:05.762Z,21.52
2022-12-01T13:11:22.049Z,24.00
2022-12-01T13:16:33.020Z,19.05
2022-12-01T13:21:41.767Z,18.60
2022-12-01T13:26:47.034Z,21.10
2022-12-01T13:31:52.212Z,20.75
2022-12-01T13:36:56.160Z,20.13
2022-12-01T13:42:19.912Z,20.13
2022-12-01T13:47:24.725Z,20.50
2022-12-01T13:52:29.608Z,24.92
2022-12-01T13:57:37.581Z,21.05
2022-12-01T14:02:39.776Z,25.92
2022-12-01T14:07:42.234Z,28.30
2022-12-01T14:12:46.339Z,25.52
2022-12-01T14:17:57.917Z,23.58
2022-12-01T14:23:13.207Z,25.77
2022-12-01T14:28:17.417Z,23.55
2022-12-01T14:33:38.966Z,23.33
2022-12-01T14:38:42.177Z,28.40
2022-12-01T14:44:03.353Z,22.40
2022-12-01T14:49:06.344Z,25.40
2022-12-01T14:54:15.373Z,28.80
2022-12-01T14:59:24.258Z,26.85
2022-12-01T15:04:26.255Z,23.58
2022-12-01T15:09:36.195Z,28.17
2022-12-01T15:14:47.007Z,26.08
2022-12-01T15:19:49.676Z,23.45
2022-12-01T15:24:52.114Z,36.28
2022-12-01T15:29:55.531Z,33.97
2022-12-01T15:35:01.872Z,27.23
2022-12-01T15:40:59.647Z,30.60
2022-12-01T15:45:43.372Z,28.13
2022-12-01T15:51:08.980Z,25.30
2022-12-01T15:56:12.051Z,28.83
2022-12-01T16:01:21.268Z,26.67
2022-12-01T16:06:28.937Z,31.25
2022-12-01T16:11:30.852Z,37.92
2022-12-01T16:16:45.156Z,32.13
2022-12-01T16:21:56.204Z,31.10
2022-12-01T16:27:04.305Z,32.40
2022-12-01T16:32:21.291Z,36.65
2022-12-01T16:37:23.769Z,35.67
2022-12-01T16:42:25.876Z,29.23
2022-12-01T16:47:31.828Z,42.60
2022-12-01T16:52:44.589Z,30.73
2022-12-01T16:57:53.833Z,33.35
2022-12-01T17:03:00.506Z,44.83
2022-12-01T17:08:02.570Z,34.47
2022-12-01T17:13:04.497Z,35.10
2022-12-01T17:18:06.461Z,34.33
2022-12-01T17:23:08.885Z,33.35
2022-12-01T17:28:10.756Z,29.30
2022-12-01T17:33:13.532Z,36.95
2022-12-01T17:38:15.473Z,30.30
2022-12-01T17:43:17.436Z,32.13
2022-12-01T17:48:19.365Z,38.42
2022-12-01T17:53:21.302Z,33.17
2022-12-01T17:58:31.360Z,43.30
2022-12-01T18:03:36.439Z,37.47
2022-12-01T18:08:39.697Z,40.60
2022-12-01T18:13:44.130Z,42.75
2022-12-01T18:18:46.284Z,33.10
2022-12-01T18:23:58.417Z,34.40
2022-12-01T18:29:04.839Z,39.92
2022-12-01T18:34:07.569Z,37.13
2022-12-01T18:39:17.155Z,59.07
2022-12-01T18:44:25.791Z,41.80
2022-12-01T18:49:27.946Z,38.47
2022-12-01T18:54:29.925Z,31.63
2022-12-01T18:59:31.883Z,32.03
2022-12-01T19:04:35.499Z,26.92
2022-12-01T19:09:37.371Z,28.55
2022-12-01T19:14:39.481Z,34.75
2022-12-01T19:19:44.377Z,34.55
2022-12-01T19:24:50.239Z,34.03
2022-12-01T19:29:54.089Z,36.70
2022-12-01T19:39:58.202Z,42.65
2022-12-01T19:45:01.196Z,43.08
2022-12-01T19:50:03.924Z,32.95
2022-12-01T19:55:06.348Z,32.80
2022-12-01T20:00:10.473Z,29.40
2022-12-01T20:05:16.119Z,32.50
2022-12-01T20:10:20.249Z,34.42
2022-12-01T20:15:22.217Z,36.33
2022-12-01T20:20:24.212Z,27.73
2022-12-01T20:25:26.452Z,30.67
2022-12-01T20:30:28.325Z,36.67
2022-12-01T20:35:30.471Z,39.10
2022-12-01T20:40:32.389Z,44.13
2022-12-01T20:45:34.341Z,41.53
2022-12-01T20:50:36.293Z,32.55
2022-12-01T20:55:38.359Z,33.25
2022-12-01T21:00:45.974Z,26.02
2022-12-01T21:05:48.264Z,30.73
2022-12-01T21:10:50.339Z,30.13
2022-12-01T21:16:01.643Z,33.85
2022-12-01T21:21:10.261Z,29.15
2022-12-01T21:26:19.107Z,28.77
2022-12-01T21:31:21.181Z,28.98
2022-12-01T21:36:26.195Z,27.75
2022-12-01T21:41:30.197Z,27.88
2022-12-01T21:46:32.327Z,28.35
2022-12-01T21:51:34.300Z,27.60
2022-12-01T21:56:36.326Z,39.90
2022-12-01T22:01:40.393Z,45.17
2022-12-01T22:06:46.422Z,90.63
2022-12-01T22:11:52.896Z,24.73
2022-12-01T22:16:58.084Z,26.58
2022-12-01T22:22:09.183Z,24.20
2022-12-01T22:27:25.578Z,26.10
2022-12-01T22:32:38.165Z,27.85
2022-12-01T22:37:53.503Z,37.88
2022-12-01T22:42:55.491Z,25.73
2022-12-01T22:48:01.959Z,24.92
2022-12-01T22:53:14.215Z,33.00
2022-12-01T22:58:33.184Z,26.27
2022-12-01T23:03:35.137Z,30.10
2022-12-01T23:08:37.141Z,26.48
2022-12-01T23:13:39.019Z,27.85
2022-12-01T23:18:40.959Z,28.38
2022-12-01T23:23:42.904Z,26.90
2022-12-01T23:28:45.004Z,28.42
2022-12-01T23:33:53.523Z,29.17
2022-12-01T23:38:58.736Z,26.10
2022-12-01T23:44:08.805Z,28.92
2022-12-01T23:49:15.750Z,26.38
2022-12-01T23:54:27.296Z,32.42
2022-12-01T23:59:30.925Z,32.25
